createdAt,value
2022-09-03T00:00:25.451Z,19.80
2022-09-03T00:03:02.725Z,19.70
2022-09-03T00:05:40.072Z,19.70
2022-09-03T00:08:15.735Z,19.70
2022-09-03T00:10:51.165Z,19.70
2022-09-03T00:13:30.259Z,19.70
2022-09-03T00:16:00.576Z,19.60
2022-09-03T00:18:33.605Z,19.70
2022-09-03T00:21:08.624Z,19.70
2022-09-03T00:23:40.119Z,19.70
2022-09-03T00:26:22.877Z,19.70
2022-09-03T00:28:59.081Z,19.70
2022-09-03T00:31:33.391Z,19.60
2022-09-03T00:34:07.343Z,19.70
2022-09-03T00:36:42.596Z,19.70
2022-09-03T00:39:12.746Z,19.60
2022-09-03T00:41:50.417Z,19.60
2022-09-03T00:44:45.025Z,19.50
2022-09-03T00:47:19.354Z,19.50
2022-09-03T00:49:56.182Z,19.50
2022-09-03T00:52:36.651Z,19.50
2022-09-03T00:55:14.551Z,19.50
2022-09-03T00:57:54.106Z,19.50
2022-09-03T01:00:22.712Z,19.50
2022-09-03T01:03:07.025Z,19.50
2022-09-03T01:05:58.513Z,19.40
2022-09-03T01:09:01.781Z,19.40
2022-09-03T01:11:40.252Z,19.30
2022-09-03T01:14:17.854Z,19.20
2022-09-03T01:16:51.102Z,19.20
2022-09-03T01:19:58.759Z,19.00
2022-09-03T01:23:02.731Z,18.90
2022-09-03T01:25:47.319Z,18.80
2022-09-03T01:28:32.891Z,18.60
2022-09-03T01:31:12.485Z,18.50
2022-09-03T01:33:44.041Z,18.40
2022-09-03T01:36:23.631Z,18.30
2022-09-03T01:38:54.535Z,18.20
2022-09-03T01:41:51.719Z,18.10
2022-09-03T01:44:32.849Z,18.10
2022-09-03T01:47:13.688Z,18.00
2022-09-03T01:49:49.251Z,17.90
2022-09-03T01:52:26.247Z,17.80
2022-09-03T01:55:09.236Z,17.80
2022-09-03T01:57:46.956Z,17.70
2022-09-03T02:00:20.369Z,17.60
2022-09-03T02:02:49.283Z,17.60
2022-09-03T02:05:20.668Z,17.60
2022-09-03T02:07:53.055Z,17.50
2022-09-03T02:10:23.567Z,17.40
2022-09-03T02:12:55.624Z,17.30
2022-09-03T02:15:27.540Z,17.20
2022-09-03T02:17:59.257Z,17.20
2022-09-03T02:20:29.794Z,17.10
2022-09-03T02:22:59.664Z,17.10
2022-09-03T02:25:34.452Z,17.10
2022-09-03T02:28:04.787Z,17.10
2022-09-03T02:30:38.642Z,17.00
2022-09-03T02:33:06.943Z,17.00
2022-09-03T02:35:35.818Z,17.00
2022-09-03T02:38:12.419Z,17.00
2022-09-03T02:40:40.785Z,17.00
2022-09-03T02:43:16.959Z,16.90
2022-09-03T02:45:49.507Z,16.90
2022-09-03T02:48:24.047Z,16.90
2022-09-03T02:50:52.222Z,16.90
2022-09-03T02:53:20.730Z,16.90
2022-09-03T02:55:48.995Z,16.80
2022-09-03T02:58:17.454Z,16.80
2022-09-03T03:00:49.359Z,16.80
2022-09-03T03:03:18.125Z,16.70
2022-09-03T03:05:48.946Z,16.70
2022-09-03T03:08:21.324Z,16.60
2022-09-03T03:10:49.715Z,16.60
2022-09-03T03:13:18.191Z,16.60
2022-09-03T03:15:48.980Z,16.50
2022-09-03T03:18:17.592Z,16.40
2022-09-03T03:20:45.894Z,16.40
2022-09-03T03:23:14.065Z,16.40
2022-09-03T03:25:42.343Z,16.30
2022-09-03T03:28:10.786Z,16.30
2022-09-03T03:30:40.314Z,16.30
2022-09-03T03:33:10.141Z,16.20
2022-09-03T03:35:38.455Z,16.20
2022-09-03T03:38:06.582Z,16.20
2022-09-03T03:40:34.898Z,16.10
2022-09-03T03:43:03.192Z,16.10
2022-09-03T03:45:31.402Z,16.10
2022-09-03T03:48:00.197Z,16.00
2022-09-03T03:50:29.952Z,16.00
2022-09-03T03:53:01.867Z,15.90
2022-09-03T03:55:30.698Z,15.90
2022-09-03T03:58:03.600Z,15.80
2022-09-03T04:00:31.909Z,15.70
2022-09-03T04:03:00.919Z,15.70
2022-09-03T04:05:33.523Z,15.70
2022-09-03T04:08:04.107Z,15.70
2022-09-03T04:10:32.510Z,15.60
2022-09-03T04:13:01.018Z,15.60
2022-09-03T04:15:29.207Z,15.60
2022-09-03T04:17:57.450Z,15.60
2022-09-03T04:20:25.587Z,15.60
2022-09-03T04:22:55.159Z,15.60
2022-09-03T04:25:23.341Z,15.60
2022-09-03T04:27:53.687Z,15.60
2022-09-03T04:30:22.241Z,15.60
2022-09-03T04:32:54.643Z,15.60
2022-09-03T04:35:23.434Z,15.60
2022-09-03T04:37:51.569Z,15.60
2022-09-03T04:40:21.046Z,15.70
2022-09-03T04:42:49.139Z,15.70
2022-09-03T04:45:18.880Z,15.70
2022-09-03T04:47:56.363Z,15.70
2022-09-03T04:50:24.831Z,15.70
2022-09-03T04:52:52.880Z,15.80
2022-09-03T04:55:22.375Z,15.80
2022-09-03T04:57:50.827Z,15.80
2022-09-03T05:00:20.341Z,15.90
2022-09-03T05:02:49.372Z,15.90
2022-09-03T05:05:17.660Z,16.00
2022-09-03T05:07:46.184Z,16.00
2022-09-03T05:10:20.414Z,16.00
2022-09-03T05:12:58.711Z,16.10
2022-09-03T05:15:26.922Z,16.10
2022-09-03T05:17:58.476Z,16.10
2022-09-03T05:20:26.926Z,16.10
2022-09-03T05:22:55.249Z,16.20
2022-09-03T05:25:23.714Z,16.20
2022-09-03T05:27:54.284Z,16.30
2022-09-03T05:30:23.603Z,16.30
2022-09-03T05:32:51.989Z,16.40
2022-09-03T05:35:24.119Z,16.40
2022-09-03T05:37:57.321Z,16.50
2022-09-03T05:40:25.448Z,16.50
2022-09-03T05:43:00.035Z,16.60
2022-09-03T05:45:29.856Z,16.60
2022-09-03T05:48:01.750Z,16.60
2022-09-03T05:50:30.113Z,16.70
2022-09-03T05:53:00.363Z,16.80
2022-09-03T05:55:29.253Z,16.90
2022-09-03T05:57:58.922Z,17.00
2022-09-03T06:00:27.197Z,17.10
2022-09-03T06:02:55.742Z,17.20
2022-09-03T06:05:23.971Z,17.30
2022-09-03T06:07:53.329Z,17.40
2022-09-03T06:10:25.708Z,17.40
2022-09-03T06:12:56.309Z,17.50
2022-09-03T06:15:25.866Z,17.50
2022-09-03T06:17:53.981Z,17.60
2022-09-03T06:20:22.158Z,17.60
2022-09-03T06:22:53.060Z,17.60
2022-09-03T06:25:21.205Z,17.70
2022-09-03T06:27:49.577Z,17.80
2022-09-03T06:30:18.270Z,17.80
2022-09-03T06:32:48.357Z,17.90
2022-09-03T06:35:16.731Z,18.00
2022-09-03T06:37:45.268Z,18.10
2022-09-03T06:40:14.323Z,18.20
2022-09-03T06:42:45.840Z,18.30
2022-09-03T06:45:14.206Z,18.40
2022-09-03T06:47:42.325Z,18.50
2022-09-03T06:50:12.098Z,18.50
2022-09-03T06:52:40.703Z,18.60
2022-09-03T06:55:09.775Z,18.70
2022-09-03T06:57:37.959Z,18.70
2022-09-03T07:00:07.242Z,18.80
2022-09-03T07:02:35.461Z,18.90
2022-09-03T07:05:03.776Z,19.00
2022-09-03T07:07:34.159Z,19.10
2022-09-03T07:10:02.824Z,19.20
2022-09-03T07:12:37.756Z,19.30
2022-09-03T07:15:06.531Z,19.40
2022-09-03T07:17:34.627Z,19.40
2022-09-03T07:20:02.770Z,19.50
2022-09-03T07:22:31.706Z,19.60
2022-09-03T07:25:02.069Z,19.60
2022-09-03T07:27:30.288Z,19.70
2022-09-03T07:29:58.448Z,19.80
2022-09-03T07:32:26.554Z,19.80
2022-09-03T07:34:54.719Z,19.90
2022-09-03T07:37:23.025Z,19.90
2022-09-03T07:39:51.378Z,19.90
2022-09-03T07:42:21.808Z,20.00
2022-09-03T07:44:50.058Z,20.10
2022-09-03T07:47:23.191Z,20.10
2022-09-03T07:49:55.155Z,20.10
2022-09-03T07:52:23.348Z,20.20
2022-09-03T07:54:51.491Z,20.20
2022-09-03T07:57:21.309Z,20.30
2022-09-03T07:59:49.699Z,20.40
2022-09-03T08:02:17.857Z,20.40
2022-09-03T08:04:46.022Z,20.40
2022-09-03T08:07:14.206Z,20.50
2022-09-03T08:09:42.785Z,20.60
2022-09-03T08:12:11.050Z,20.60
2022-09-03T08:14:40.537Z,20.70
2022-09-03T08:17:08.655Z,20.70
2022-09-03T08:19:36.816Z,20.80
2022-09-03T08:22:04.922Z,20.90
2022-09-03T08:24:34.362Z,20.90
2022-09-03T08:27:02.904Z,20.90
2022-09-03T08:29:31.049Z,21.00
2022-09-03T08:32:05.021Z,21.10
2022-09-03T08:34:33.803Z,21.10
2022-09-03T08:37:02.375Z,21.20
2022-09-03T08:39:32.355Z,21.20
2022-09-03T08:42:25.983Z,21.30
2022-09-03T08:44:58.592Z,21.30
2022-09-03T08:47:32.819Z,21.40
2022-09-03T08:50:05.557Z,21.40
2022-09-03T08:52:39.128Z,21.50
2022-09-03T08:55:20.212Z,21.50
2022-09-03T08:57:50.276Z,21.50
2022-09-03T09:00:19.388Z,21.50
2022-09-03T09:03:02.710Z,21.50
2022-09-03T09:05:45.232Z,21.50
2022-09-03T09:08:21.987Z,21.50
2022-09-03T09:10:57.081Z,21.50
2022-09-03T09:13:32.816Z,21.50
2022-09-03T09:16:10.526Z,21.50
2022-09-03T09:18:55.472Z,21.50
2022-09-03T09:21:29.196Z,21.50
2022-09-03T09:24:02.976Z,21.50
2022-09-03T09:26:31.502Z,21.50
2022-09-03T09:29:03.814Z,21.50
2022-09-03T09:31:34.024Z,21.50
2022-09-03T09:34:09.234Z,21.50
2022-09-03T09:36:43.484Z,21.50
2022-09-03T09:39:15.929Z,21.50
2022-09-03T09:41:45.031Z,21.50
2022-09-03T09:44:21.230Z,21.50
2022-09-03T09:46:54.559Z,21.50
2022-09-03T09:49:32.658Z,21.60
2022-09-03T09:52:06.826Z,21.70
2022-09-03T09:54:35.538Z,21.70
2022-09-03T09:57:05.774Z,21.80
2022-09-03T09:59:35.537Z,21.90
2022-09-03T10:02:21.896Z,22.00
2022-09-03T10:04:51.922Z,22.00
2022-09-03T10:07:25.663Z,22.10
2022-09-03T10:10:02.462Z,22.30
2022-09-03T10:12:35.841Z,22.40
2022-09-03T10:15:24.044Z,22.40
2022-09-03T10:18:01.454Z,22.60
2022-09-03T10:20:37.414Z,22.70
2022-09-03T10:23:14.774Z,22.80
2022-09-03T10:25:53.616Z,22.90
2022-09-03T10:28:24.621Z,22.90
2022-09-03T10:31:15.942Z,23.00
2022-09-03T10:33:51.171Z,23.00
2022-09-03T10:36:26.478Z,23.00
2022-09-03T10:39:01.612Z,23.00
2022-09-03T10:41:47.496Z,23.00
2022-09-03T10:44:45.121Z,23.00
2022-09-03T10:47:30.114Z,23.00
2022-09-03T10:50:08.650Z,23.00
2022-09-03T10:52:49.594Z,23.00
2022-09-03T10:55:26.856Z,23.00
2022-09-03T10:58:11.240Z,22.90
2022-09-03T11:00:48.289Z,22.90
2022-09-03T11:03:45.788Z,22.90
2022-09-03T11:06:20.487Z,22.90
2022-09-03T11:08:57.991Z,22.80
2022-09-03T11:11:33.030Z,22.80
2022-09-03T11:14:09.020Z,22.80
2022-09-03T11:16:42.069Z,22.80
2022-09-03T11:19:12.610Z,22.80
2022-09-03T11:21:42.739Z,22.80
2022-09-03T11:24:17.112Z,22.80
2022-09-03T11:26:48.396Z,22.90
2022-09-03T11:29:23.835Z,22.90
2022-09-03T11:31:58.829Z,22.90
2022-09-03T11:34:33.232Z,23.00
2022-09-03T11:37:20.710Z,23.10
2022-09-03T11:39:58.857Z,23.20
2022-09-03T11:42:32.990Z,23.30
2022-09-03T11:45:14.407Z,23.50
2022-09-03T11:47:44.427Z,23.60
2022-09-03T11:50:21.568Z,23.70
2022-09-03T11:52:52.125Z,23.90
2022-09-03T11:55:38.434Z,24.00
2022-09-03T11:58:14.130Z,24.10
2022-09-03T12:00:45.019Z,24.20
2022-09-03T12:03:18.051Z,24.30
2022-09-03T12:05:51.821Z,24.40
2022-09-03T12:08:38.974Z,24.60
2022-09-03T12:11:26.754Z,24.80
2022-09-03T12:14:04.282Z,24.90
2022-09-03T12:16:48.711Z,25.00
2022-09-03T12:19:23.842Z,25.10
2022-09-03T12:21:53.172Z,25.20
2022-09-03T12:24:23.332Z,25.30
2022-09-03T12:26:52.851Z,25.40
2022-09-03T12:29:27.573Z,25.40
2022-09-03T12:31:57.454Z,25.50
2022-09-03T12:34:27.419Z,25.50
2022-09-03T12:36:55.988Z,25.50
2022-09-03T12:42:21.828Z,25.50
2022-09-03T12:44:49.958Z,25.60
2022-09-03T12:47:37.006Z,25.60
2022-09-03T12:50:10.972Z,25.70
2022-09-03T12:52:44.296Z,25.80
2022-09-03T12:55:18.822Z,26.00
2022-09-03T12:57:57.770Z,26.20
2022-09-03T13:00:34.205Z,26.30
2022-09-03T13:03:05.642Z,26.40
2022-09-03T13:05:37.266Z,26.40
2022-09-03T13:08:12.198Z,26.50
2022-09-03T13:10:43.208Z,26.50
2022-09-03T13:13:23.424Z,26.70
2022-09-03T13:16:18.948Z,27.10
2022-09-03T13:18:50.795Z,27.40
2022-09-03T13:21:30.724Z,27.70
2022-09-03T13:24:10.500Z,28.00
2022-09-03T13:26:46.882Z,28.30
2022-09-03T13:29:38.397Z,28.60
2022-09-03T13:32:19.833Z,28.80
2022-09-03T13:34:54.567Z,29.10
2022-09-03T13:37:30.270Z,29.30
2022-09-03T13:40:01.254Z,29.60
2022-09-03T13:42:35.310Z,29.80
2022-09-03T13:45:15.750Z,30.00
2022-09-03T13:48:01.436Z,30.10
2022-09-03T13:50:32.748Z,30.00
2022-09-03T13:53:06.321Z,29.90
2022-09-03T13:55:39.171Z,29.80
2022-09-03T13:58:12.726Z,29.60
2022-09-03T14:00:48.145Z,29.40
2022-09-03T14:03:31.553Z,29.30
2022-09-03T14:06:09.928Z,29.10
2022-09-03T14:08:58.653Z,28.90
2022-09-03T14:11:32.180Z,28.70
2022-09-03T14:14:12.042Z,28.50
2022-09-03T14:16:49.020Z,28.30
2022-09-03T14:19:24.675Z,28.20
2022-09-03T14:21:59.343Z,28.10
2022-09-03T14:24:36.269Z,28.10
2022-09-03T14:27:05.691Z,28.00
2022-09-03T14:29:35.635Z,27.90
2022-09-03T14:32:42.328Z,27.90
2022-09-03T14:35:35.260Z,27.80
2022-09-03T14:38:36.691Z,27.80
2022-09-03T14:41:20.811Z,27.70
2022-09-03T14:44:22.843Z,27.60
2022-09-03T14:47:13.946Z,27.50
2022-09-03T14:50:02.649Z,27.50
2022-09-03T14:52:53.415Z,27.50
2022-09-03T14:55:32.241Z,27.50
2022-09-03T14:58:16.075Z,27.50
2022-09-03T15:00:52.858Z,27.50
2022-09-03T15:03:44.661Z,27.50
2022-09-03T15:06:30.861Z,27.50
2022-09-03T15:09:23.370Z,27.50
2022-09-03T15:11:57.565Z,27.50
2022-09-03T15:14:36.485Z,27.50
2022-09-03T15:17:32.011Z,27.50
2022-09-03T15:20:12.698Z,27.50
2022-09-03T15:23:00.087Z,27.50
2022-09-03T15:25:41.880Z,27.60
2022-09-03T15:28:18.451Z,27.60
2022-09-03T15:30:53.262Z,27.60
2022-09-03T15:33:31.693Z,27.60
2022-09-03T15:36:12.850Z,27.60
2022-09-03T15:38:46.686Z,27.60
2022-09-03T15:41:30.107Z,27.50
2022-09-03T15:44:01.220Z,27.40
2022-09-03T15:46:48.336Z,27.40
2022-09-03T15:49:26.472Z,27.40
2022-09-03T15:52:06.994Z,27.30
2022-09-03T15:54:44.733Z,27.40
2022-09-03T15:57:20.048Z,27.40
2022-09-03T15:59:54.523Z,27.40
2022-09-03T16:02:28.978Z,27.40
2022-09-03T16:05:07.151Z,27.40
2022-09-03T16:07:50.718Z,27.40
2022-09-03T16:10:24.704Z,27.40
2022-09-03T16:13:04.920Z,27.40
2022-09-03T16:15:41.200Z,27.40
2022-09-03T16:18:16.356Z,27.30
2022-09-03T16:20:47.347Z,27.30
2022-09-03T16:23:21.768Z,27.30
2022-09-03T16:25:53.252Z,27.20
2022-09-03T16:28:30.073Z,27.20
2022-09-03T16:31:09.976Z,27.20
2022-09-03T16:33:47.666Z,27.10
2022-09-03T16:36:30.907Z,27.10
2022-09-03T16:39:09.629Z,27.00
2022-09-03T16:41:46.449Z,27.00
2022-09-03T16:44:23.784Z,26.90
2022-09-03T16:47:00.729Z,26.80
2022-09-03T16:49:48.094Z,26.80
2022-09-03T16:52:38.593Z,26.70
2022-09-03T16:55:22.094Z,26.70
2022-09-03T16:58:07.976Z,26.70
2022-09-03T17:00:54.147Z,26.60
2022-09-03T17:03:51.517Z,26.60
2022-09-03T17:06:48.240Z,26.60
2022-09-03T17:09:32.383Z,26.60
2022-09-03T17:12:06.589Z,26.60
2022-09-03T17:15:02.590Z,26.50
2022-09-03T17:18:00.195Z,26.40
2022-09-03T17:20:43.942Z,26.40
2022-09-03T17:23:36.574Z,26.40
2022-09-03T17:26:12.731Z,26.30
2022-09-03T17:28:53.439Z,26.30
2022-09-03T17:31:29.095Z,26.30
2022-09-03T17:34:09.242Z,26.20
2022-09-03T17:36:39.727Z,26.20
2022-09-03T17:39:55.850Z,26.20
2022-09-03T17:42:32.282Z,26.10
2022-09-03T17:45:13.821Z,26.10
2022-09-03T17:48:11.170Z,26.00
2022-09-03T17:50:52.040Z,25.90
2022-09-03T17:53:26.141Z,26.00
2022-09-03T17:55:58.844Z,25.90
2022-09-03T17:58:33.686Z,25.90
2022-09-03T18:01:13.275Z,25.90
2022-09-03T18:03:46.791Z,25.80
2022-09-03T18:06:27.268Z,25.80
2022-09-03T18:09:00.896Z,25.80
2022-09-03T18:11:35.192Z,25.70
2022-09-03T18:14:13.034Z,25.70
2022-09-03T18:16:49.349Z,25.50
2022-09-03T18:19:29.303Z,25.50
2022-09-03T18:22:18.362Z,25.40
2022-09-03T18:25:10.709Z,25.30
2022-09-03T18:28:00.635Z,25.20
2022-09-03T18:30:46.760Z,25.10
2022-09-03T18:33:34.578Z,25.00
2022-09-03T18:36:20.680Z,24.90
2022-09-03T18:39:08.361Z,24.80
2022-09-03T18:42:13.997Z,24.70
2022-09-03T18:45:23.257Z,24.60
2022-09-03T18:48:21.808Z,24.60
2022-09-03T18:51:16.413Z,24.50
2022-09-03T18:54:12.463Z,24.40
2022-09-03T18:57:05.135Z,24.30
2022-09-03T19:00:19.282Z,24.20
2022-09-03T19:03:35.046Z,24.10
2022-09-03T19:06:32.783Z,24.00
2022-09-03T19:09:26.263Z,23.90
2022-09-03T19:12:24.835Z,23.80
2022-09-03T19:15:16.331Z,23.70
2022-09-03T19:18:21.370Z,23.70
2022-09-03T19:21:15.307Z,23.70
2022-09-03T19:24:00.712Z,23.60
2022-09-03T19:26:58.062Z,23.60
2022-09-03T19:29:58.058Z,23.50
2022-09-03T19:32:55.712Z,23.50
2022-09-03T19:35:48.090Z,23.40
2022-09-03T19:38:41.555Z,23.40
2022-09-03T19:41:36.671Z,23.30
2022-09-03T19:44:44.382Z,23.20
2022-09-03T19:47:37.511Z,23.10
2022-09-03T19:50:31.909Z,22.90
2022-09-03T19:53:20.946Z,22.80
2022-09-03T19:56:14.428Z,22.70
2022-09-03T19:59:05.798Z,22.50
2022-09-03T20:01:55.560Z,22.50
2022-09-03T20:04:48.591Z,22.30
2022-09-03T20:07:34.947Z,22.20
2022-09-03T20:10:23.655Z,22.10
2022-09-03T20:13:03.810Z,22.00
2022-09-03T20:15:42.707Z,21.90
2022-09-03T20:18:20.880Z,21.70
2022-09-03T20:20:57.263Z,21.60
2022-09-03T20:23:34.008Z,21.60
2022-09-03T20:26:13.489Z,21.50
2022-09-03T20:29:11.702Z,21.40
2022-09-03T20:31:50.782Z,21.30
2022-09-03T20:34:34.604Z,21.20
2022-09-03T20:37:16.643Z,21.10
2022-09-03T20:39:55.797Z,21.00
2022-09-03T20:42:47.065Z,20.90
2022-09-03T20:45:19.092Z,20.90
2022-09-03T20:48:01.254Z,20.80
2022-09-03T20:50:44.267Z,20.80
2022-09-03T20:53:31.983Z,20.70
2022-09-03T20:56:10.758Z,20.70
2022-09-03T20:58:45.984Z,20.70
2022-09-03T21:01:22.712Z,20.70
2022-09-03T21:04:04.288Z,20.60
2022-09-03T21:06:42.522Z,20.60
2022-09-03T21:09:21.559Z,20.60
2022-09-03T21:12:01.179Z,20.60
2022-09-03T21:14:35.829Z,20.50
2022-09-03T21:17:27.093Z,20.50
2022-09-03T21:20:18.449Z,20.50
2022-09-03T21:23:01.007Z,20.50
2022-09-03T21:25:33.690Z,20.50
2022-09-03T21:28:06.475Z,20.40
2022-09-03T21:30:40.606Z,20.40
2022-09-03T21:33:14.071Z,20.40
2022-09-03T21:35:45.685Z,20.30
2022-09-03T21:38:22.658Z,20.30
2022-09-03T21:40:56.347Z,20.30
2022-09-03T21:43:30.287Z,20.30
2022-09-03T21:46:05.849Z,20.20
2022-09-03T21:48:39.019Z,20.20
2022-09-03T21:51:14.748Z,20.10
2022-09-03T21:53:49.091Z,20.10
2022-09-03T21:56:46.336Z,20.10
2022-09-03T21:59:28.543Z,20.10
2022-09-03T22:02:04.931Z,20.10
2022-09-03T22:04:33.156Z,20.10
2022-09-03T22:07:13.149Z,20.00
2022-09-03T22:09:47.571Z,20.00
2022-09-03T22:12:21.403Z,20.00
2022-09-03T22:14:52.838Z,19.90
2022-09-03T22:17:27.747Z,19.90
2022-09-03T22:19:56.032Z,19.80
2022-09-03T22:22:29.846Z,19.80
2022-09-03T22:25:05.093Z,19.70
2022-09-03T22:27:39.831Z,19.70
2022-09-03T22:30:13.884Z,19.60
2022-09-03T22:32:52.748Z,19.60
2022-09-03T22:35:38.303Z,19.60
2022-09-03T22:38:28.747Z,19.50
2022-09-03T22:41:06.011Z,19.50
2022-09-03T22:43:40.666Z,19.50
2022-09-03T22:46:14.642Z,19.50
2022-09-03T22:49:08.086Z,19.50
2022-09-03T22:51:48.013Z,19.40
2022-09-03T22:54:34.493Z,19.40
2022-09-03T22:57:06.250Z,19.40
2022-09-03T22:59:40.109Z,19.40
2022-09-03T23:02:14.404Z,19.40
2022-09-03T23:04:51.898Z,19.40
2022-09-03T23:07:26.538Z,19.30
2022-09-03T23:10:01.667Z,19.30
2022-09-03T23:12:38.127Z,19.20
2022-09-03T23:15:11.614Z,19.20
2022-09-03T23:17:43.955Z,19.10
2022-09-03T23:20:17.979Z,19.00
2022-09-03T23:22:59.772Z,19.00
2022-09-03T23:25:33.607Z,18.90
2022-09-03T23:28:10.718Z,18.80
2022-09-03T23:30:39.270Z,18.70
2022-09-03T23:33:08.562Z,18.70
2022-09-03T23:35:47.865Z,18.60
2022-09-03T23:38:24.263Z,18.60
2022-09-03T23:40:57.913Z,18.50
2022-09-03T23:43:55.644Z,18.40
2022-09-03T23:46:29.190Z,18.30
2022-09-03T23:49:22.815Z,18.20
2022-09-03T23:52:18.094Z,18.10
2022-09-03T23:54:49.062Z,18.10
2022-09-03T23:57:24.702Z,18.10
